createdAt,value
2022-11-28T00:02:07.774Z,7.73
2022-11-28T00:05:11.940Z,7.73
2022-11-28T00:08:14.692Z,6.97
2022-11-28T00:11:19.099Z,6.80
2022-11-28T00:14:21.726Z,7.60
2022-11-28T00:17:24.310Z,7.60
2022-11-28T00:20:27.037Z,7.40
2022-11-28T00:23:30.297Z,7.43
2022-11-28T00:26:36.593Z,7.40
2022-11-28T00:29:39.754Z,6.80
2022-11-28T00:32:42.484Z,6.50
2022-11-28T00:35:45.127Z,6.53
2022-11-28T00:38:48.114Z,7.20
2022-11-28T00:41:52.135Z,6.70
2022-11-28T00:44:54.720Z,7.57
2022-11-28T00:47:57.371Z,7.17
2022-11-28T00:51:08.035Z,6.73
2022-11-28T00:54:11.857Z,6.07
2022-11-28T00:57:15.891Z,6.87
2022-11-28T01:00:19.143Z,6.37
2022-11-28T01:03:21.808Z,6.10
2022-11-28T01:06:25.568Z,6.47
2022-11-28T01:09:28.181Z,6.00
2022-11-28T01:12:32.169Z,6.57
2022-11-28T01:15:34.824Z,6.87
2022-11-28T01:18:37.794Z,6.37
2022-11-28T01:21:40.444Z,6.50
2022-11-28T01:24:43.310Z,6.40
2022-11-28T01:27:47.386Z,6.03
2022-11-28T01:30:50.077Z,6.43
2022-11-28T01:33:53.403Z,6.20
2022-11-28T01:36:56.034Z,6.23
2022-11-28T01:39:59.010Z,6.20
2022-11-28T01:43:02.994Z,6.13
2022-11-28T01:46:06.972Z,6.57
2022-11-28T01:49:14.997Z,6.10
2022-11-28T01:52:20.623Z,6.43
2022-11-28T01:55:27.979Z,6.47
2022-11-28T01:58:34.241Z,6.50
2022-11-28T02:01:37.098Z,5.87
2022-11-28T02:04:39.929Z,5.73
2022-11-28T02:07:44.473Z,6.10
2022-11-28T02:11:04.858Z,5.90
2022-11-28T02:14:17.184Z,5.83
2022-11-28T02:17:32.337Z,6.10
2022-11-28T02:21:17.084Z,6.13
2022-11-28T02:24:45.837Z,7.00
2022-11-28T02:28:07.699Z,6.80
2022-11-28T02:31:28.434Z,6.13
2022-11-28T02:34:45.637Z,6.20
2022-11-28T02:38:03.109Z,6.97
2022-11-28T02:41:16.593Z,6.37
2022-11-28T02:44:20.821Z,6.53
2022-11-28T02:47:28.392Z,6.63
2022-11-28T02:50:38.285Z,6.37
2022-11-28T02:53:45.650Z,6.50
2022-11-28T02:56:49.701Z,6.90
2022-11-28T02:59:52.685Z,6.43
2022-11-28T03:03:14.771Z,6.60
2022-11-28T03:06:29.970Z,6.00
2022-11-28T03:09:56.047Z,7.30
2022-11-28T03:13:08.608Z,6.43
2022-11-28T03:16:24.768Z,6.33
2022-11-28T03:19:32.130Z,6.97
2022-11-28T03:22:43.155Z,6.53
2022-11-28T03:25:57.026Z,7.00
2022-11-28T03:29:04.738Z,6.00
2022-11-28T03:32:10.713Z,7.10
2022-11-28T03:35:17.869Z,6.93
2022-11-28T03:38:26.060Z,6.40
2022-11-28T03:41:35.452Z,6.53
2022-11-28T03:44:44.871Z,6.40
2022-11-28T03:47:52.242Z,6.37
2022-11-28T03:50:59.966Z,6.33
2022-11-28T03:54:08.426Z,6.57
2022-11-28T03:57:18.918Z,6.07
2022-11-28T04:00:22.273Z,6.27
2022-11-28T04:03:32.222Z,6.97
2022-11-28T04:06:41.379Z,6.30
2022-11-28T04:09:50.539Z,6.13
2022-11-28T04:12:58.069Z,6.80
2022-11-28T04:16:08.592Z,6.50
2022-11-28T04:19:17.391Z,6.60
2022-11-28T04:22:23.561Z,7.20
2022-11-28T04:25:31.643Z,6.67
2022-11-28T04:28:37.730Z,6.40
2022-11-28T04:31:43.830Z,6.77
2022-11-28T04:34:50.864Z,6.93
2022-11-28T04:37:55.617Z,6.77
2022-11-28T04:41:05.520Z,6.33
2022-11-28T04:44:13.650Z,6.77
2022-11-28T04:47:17.793Z,6.50
2022-11-28T04:50:24.149Z,6.47
2022-11-28T04:53:33.974Z,6.53
2022-11-28T04:56:43.131Z,6.63
2022-11-28T04:59:47.430Z,6.97
2022-11-28T05:02:53.351Z,6.77
2022-11-28T05:05:56.040Z,6.60
2022-11-28T05:08:59.014Z,6.27
2022-11-28T05:12:03.318Z,6.63
2022-11-28T05:15:06.965Z,6.70
2022-11-28T05:18:10.020Z,6.03
2022-11-28T05:21:13.186Z,7.23
2022-11-28T05:24:15.823Z,6.93
2022-11-28T05:27:20.021Z,7.23
2022-11-28T05:30:22.662Z,7.10
2022-11-28T05:33:25.326Z,7.60
2022-11-28T05:36:27.977Z,7.50
2022-11-28T05:39:30.606Z,6.90
2022-11-28T05:42:35.710Z,6.77
2022-11-28T05:45:40.779Z,7.37
2022-11-28T05:48:43.589Z,6.90
2022-11-28T05:51:46.202Z,7.17
2022-11-28T05:54:48.894Z,7.30
2022-11-28T05:57:53.840Z,7.70
2022-11-28T06:00:56.452Z,7.03
2022-11-28T06:04:01.108Z,8.03
2022-11-28T06:07:03.873Z,6.47
2022-11-28T06:10:07.900Z,6.90
2022-11-28T06:13:11.847Z,6.60
2022-11-28T06:16:16.578Z,7.27
2022-11-28T06:19:19.237Z,7.20
2022-11-28T06:22:22.044Z,7.10
2022-11-28T06:25:24.714Z,8.00
2022-11-28T06:28:28.667Z,6.83
2022-11-28T06:31:31.438Z,7.10
2022-11-28T06:34:34.414Z,6.97
2022-11-28T06:37:37.067Z,6.67
2022-11-28T06:40:39.864Z,7.23
2022-11-28T06:43:44.332Z,7.10
2022-11-28T06:46:47.000Z,7.53
2022-11-28T06:49:49.659Z,7.47
2022-11-28T06:52:52.303Z,7.67
2022-11-28T06:55:55.063Z,7.57
2022-11-28T06:59:00.544Z,7.83
2022-11-28T07:02:07.586Z,8.00
2022-11-28T07:05:10.972Z,7.63
2022-11-28T07:08:13.646Z,7.90
2022-11-28T07:11:18.383Z,7.60
2022-11-28T07:14:22.381Z,8.13
2022-11-28T07:17:25.048Z,7.90
2022-11-28T07:20:27.695Z,7.80
2022-11-28T07:23:30.329Z,8.60
2022-11-28T07:26:33.378Z,8.13
2022-11-28T07:29:37.436Z,8.67
2022-11-28T07:32:40.391Z,8.53
2022-11-28T07:35:42.981Z,8.83
2022-11-28T07:38:48.655Z,8.73
2022-11-28T07:41:51.750Z,9.20
2022-11-28T07:44:55.722Z,9.60
2022-11-28T07:47:58.338Z,9.10
2022-11-28T07:51:01.004Z,8.70
2022-11-28T07:54:05.101Z,9.03
2022-11-28T07:57:12.467Z,9.60
2022-11-28T08:00:19.002Z,8.93
2022-11-28T08:03:21.628Z,9.63
2022-11-28T08:06:26.547Z,9.83
2022-11-28T08:09:29.557Z,9.50
2022-11-28T08:12:32.216Z,9.70
2022-11-28T08:15:37.771Z,9.13
2022-11-28T08:18:40.433Z,9.63
2022-11-28T08:21:43.208Z,10.30
2022-11-28T08:24:45.882Z,9.73
2022-11-28T08:27:48.547Z,9.67
2022-11-28T08:30:52.556Z,10.10
2022-11-28T08:33:57.132Z,9.70
2022-11-28T08:36:59.741Z,9.87
2022-11-28T08:40:02.404Z,10.03
2022-11-28T08:43:05.529Z,9.27
2022-11-28T08:46:11.875Z,9.87
2022-11-28T08:49:14.555Z,9.73
2022-11-28T08:52:19.602Z,9.60
2022-11-28T08:55:30.664Z,9.17
2022-11-28T08:58:34.672Z,9.43
2022-11-28T09:01:39.484Z,9.33
2022-11-28T09:04:42.274Z,9.43
2022-11-28T09:07:44.974Z,9.23
2022-11-28T09:10:48.399Z,9.37
2022-11-28T09:13:51.586Z,9.17
2022-11-28T09:16:55.634Z,8.77
2022-11-28T09:19:58.319Z,8.73
2022-11-28T09:23:01.220Z,8.90
2022-11-28T09:26:10.066Z,9.00
2022-11-28T09:29:12.694Z,8.77
2022-11-28T09:32:16.681Z,9.20
2022-11-28T09:35:19.734Z,9.20
2022-11-28T09:38:22.504Z,10.07
2022-11-28T09:41:44.176Z,8.90
2022-11-28T09:44:52.785Z,9.50
2022-11-28T09:48:01.901Z,8.60
2022-11-28T09:51:14.346Z,9.13
2022-11-28T09:54:22.926Z,9.00
2022-11-28T09:57:32.899Z,8.53
2022-11-28T10:00:38.699Z,7.80
2022-11-28T10:03:52.680Z,8.97
2022-11-28T10:07:04.645Z,8.60
2022-11-28T10:10:14.835Z,8.57
2022-11-28T10:13:27.414Z,8.87
2022-11-28T10:16:46.464Z,7.97
2022-11-28T10:19:55.312Z,8.30
2022-11-28T10:23:01.781Z,9.13
2022-11-28T10:26:08.819Z,9.20
2022-11-28T10:29:46.772Z,9.13
2022-11-28T10:32:56.969Z,9.63
2022-11-28T10:36:03.160Z,9.03
2022-11-28T10:39:12.435Z,9.13
2022-11-28T10:42:20.168Z,8.57
2022-11-28T10:45:28.681Z,8.20
2022-11-28T10:48:41.610Z,9.27
2022-11-28T10:51:54.900Z,9.40
2022-11-28T10:55:14.377Z,9.87
2022-11-28T10:58:24.265Z,8.53
2022-11-28T11:01:30.708Z,8.97
2022-11-28T11:04:37.723Z,8.77
2022-11-28T11:07:47.407Z,8.97
2022-11-28T11:10:52.023Z,8.97
2022-11-28T11:14:01.302Z,9.47
2022-11-28T11:17:04.524Z,9.00
2022-11-28T11:20:28.040Z,8.50
2022-11-28T11:23:37.921Z,8.67
2022-11-28T11:26:43.802Z,8.33
2022-11-28T11:29:50.307Z,9.00
2022-11-28T11:32:55.118Z,8.93
2022-11-28T11:35:57.783Z,8.63
2022-11-28T11:39:19.980Z,8.63
2022-11-28T11:42:24.961Z,8.80
2022-11-28T11:45:31.024Z,8.53
2022-11-28T11:48:38.661Z,7.93
2022-11-28T11:51:41.293Z,8.10
2022-11-28T11:54:57.446Z,9.07
2022-11-28T11:58:05.854Z,8.33
2022-11-28T12:01:12.738Z,8.87
2022-11-28T12:04:43.974Z,9.20
2022-11-28T12:07:51.472Z,9.53
2022-11-28T12:11:08.025Z,8.50
2022-11-28T12:14:28.348Z,8.37
2022-11-28T12:17:50.001Z,8.83
2022-11-28T12:21:07.441Z,9.57
2022-11-28T12:24:13.374Z,9.40
2022-11-28T12:27:28.282Z,8.93
2022-11-28T12:30:46.951Z,8.40
2022-11-28T12:33:59.190Z,8.23
2022-11-28T12:37:15.708Z,8.27
2022-11-28T12:40:31.892Z,7.57
2022-11-28T12:43:51.269Z,7.87
2022-11-28T12:47:03.902Z,8.30
2022-11-28T12:50:20.004Z,8.07
2022-11-28T12:53:39.604Z,7.97
2022-11-28T12:56:53.928Z,7.53
2022-11-28T13:00:08.353Z,7.67
2022-11-28T13:03:22.834Z,8.13
2022-11-28T13:06:34.124Z,8.07
2022-11-28T13:09:39.488Z,7.90
2022-11-28T13:12:53.714Z,8.27
2022-11-28T13:16:11.629Z,8.07
2022-11-28T13:19:32.173Z,7.33
2022-11-28T13:22:44.237Z,8.00
2022-11-28T13:25:54.178Z,8.07
2022-11-28T13:29:02.883Z,7.93
2022-11-28T13:32:13.521Z,8.03
2022-11-28T13:35:19.516Z,7.93
2022-11-28T13:38:36.720Z,8.17
2022-11-28T13:42:16.239Z,8.87
2022-11-28T13:45:28.252Z,8.80
2022-11-28T13:49:19.911Z,8.80
2022-11-28T13:52:33.842Z,8.47
2022-11-28T13:55:44.595Z,9.07
2022-11-28T13:58:52.072Z,9.33
2022-11-28T14:01:59.602Z,9.70
2022-11-28T14:05:04.907Z,10.20
2022-11-28T14:08:08.278Z,9.53
2022-11-28T14:11:50.721Z,9.23
2022-11-28T14:15:06.507Z,9.97
2022-11-28T14:18:55.812Z,9.37
2022-11-28T14:22:07.405Z,9.43
2022-11-28T14:25:17.824Z,10.10
2022-11-28T14:28:24.570Z,10.93
2022-11-28T14:31:31.916Z,10.20
2022-11-28T14:34:40.647Z,10.10
2022-11-28T14:37:55.544Z,9.87
2022-11-28T14:41:04.006Z,9.47
2022-11-28T14:44:45.656Z,10.13
2022-11-28T14:48:17.926Z,10.97
2022-11-28T14:51:20.625Z,10.47
2022-11-28T14:54:35.083Z,10.37
2022-11-28T14:57:56.073Z,10.17
2022-11-28T15:01:00.032Z,10.63
2022-11-28T15:04:22.977Z,10.63
2022-11-28T15:07:35.839Z,11.33
2022-11-28T15:10:50.068Z,11.87
2022-11-28T15:14:06.338Z,10.67
2022-11-28T15:17:14.816Z,11.00
2022-11-28T15:20:22.385Z,10.67
2022-11-28T15:23:26.578Z,10.93
2022-11-28T15:26:31.873Z,11.30
2022-11-28T15:29:35.315Z,10.97
2022-11-28T15:32:38.009Z,12.17
2022-11-28T15:35:42.449Z,11.47
2022-11-28T15:38:45.210Z,11.30
2022-11-28T15:41:49.571Z,11.57
2022-11-28T15:44:56.555Z,11.80
2022-11-28T15:47:59.909Z,11.87
2022-11-28T15:51:03.715Z,12.20
2022-11-28T15:54:26.757Z,11.87
2022-11-28T15:57:32.526Z,12.23
2022-11-28T16:00:35.482Z,12.23
2022-11-28T16:03:49.392Z,12.40
2022-11-28T16:06:54.574Z,11.63
2022-11-28T16:10:00.485Z,11.27
2022-11-28T16:13:11.627Z,11.23
2022-11-28T16:16:17.664Z,12.13
2022-11-28T16:19:25.584Z,12.40
2022-11-28T16:22:33.281Z,12.70
2022-11-28T16:25:36.220Z,11.87
2022-11-28T16:28:41.170Z,12.77
2022-11-28T16:31:45.387Z,12.23
2022-11-28T16:34:49.919Z,12.00
2022-11-28T16:37:52.591Z,11.70
2022-11-28T16:41:00.931Z,11.70
2022-11-28T16:44:07.312Z,12.63
2022-11-28T16:47:26.305Z,12.60
2022-11-28T16:50:28.983Z,11.73
2022-11-28T16:53:44.462Z,11.73
2022-11-28T16:56:48.343Z,12.20
2022-11-28T16:59:53.642Z,12.70
2022-11-28T17:02:56.275Z,12.00
2022-11-28T17:05:58.874Z,12.73
2022-11-28T17:09:02.061Z,11.93
2022-11-28T17:12:07.366Z,12.07
2022-11-28T17:15:16.367Z,12.50
2022-11-28T17:18:18.981Z,11.90
2022-11-28T17:21:32.125Z,11.70
2022-11-28T17:24:35.895Z,11.83
2022-11-28T17:27:38.508Z,11.93
2022-11-28T17:30:42.785Z,12.33
2022-11-28T17:33:45.372Z,12.60
2022-11-28T17:36:48.633Z,12.60
2022-11-28T17:40:05.152Z,12.47
2022-11-28T17:43:10.254Z,12.07
2022-11-28T17:46:14.243Z,12.83
2022-11-28T17:49:16.996Z,14.10
2022-11-28T17:52:21.029Z,13.00
2022-11-28T17:55:23.682Z,13.03
2022-11-28T17:58:27.232Z,12.63
2022-11-28T18:01:31.789Z,13.23
2022-11-28T18:04:37.402Z,13.17
2022-11-28T18:07:40.129Z,12.93
2022-11-28T18:10:43.049Z,12.20
2022-11-28T18:13:45.877Z,12.97
2022-11-28T18:16:49.900Z,12.53
2022-11-28T18:19:57.281Z,12.93
2022-11-28T18:23:01.672Z,12.83
2022-11-28T18:26:07.553Z,12.93
2022-11-28T18:29:10.685Z,12.63
2022-11-28T18:32:14.665Z,14.13
2022-11-28T18:35:17.323Z,12.73
2022-11-28T18:38:19.936Z,12.23
2022-11-28T18:41:22.847Z,12.80
2022-11-28T18:44:25.459Z,12.23
2022-11-28T18:47:29.438Z,12.87
2022-11-28T18:50:32.100Z,13.60
2022-11-28T18:53:34.722Z,12.97
2022-11-28T18:56:37.328Z,12.63
2022-11-28T18:59:39.941Z,12.50
2022-11-28T19:02:43.911Z,11.47
2022-11-28T19:05:46.544Z,13.37
2022-11-28T19:08:49.799Z,13.00
2022-11-28T19:11:52.429Z,13.67
2022-11-28T19:15:00.319Z,13.90
2022-11-28T19:18:06.157Z,14.23
2022-11-28T19:21:10.558Z,12.87
2022-11-28T19:24:13.566Z,13.00
2022-11-28T19:27:16.162Z,12.70
2022-11-28T19:30:19.041Z,13.33
2022-11-28T19:33:23.012Z,12.47
2022-11-28T19:36:26.421Z,12.20
2022-11-28T19:39:29.134Z,12.97
2022-11-28T19:42:31.804Z,12.97
2022-11-28T19:45:34.461Z,13.10
2022-11-28T19:48:40.531Z,13.20
2022-11-28T19:51:43.232Z,13.37
2022-11-28T19:54:45.904Z,12.83
2022-11-28T19:57:48.731Z,12.93
2022-11-28T20:00:51.372Z,13.40
2022-11-28T20:03:55.562Z,13.43
2022-11-28T20:06:58.266Z,13.17
2022-11-28T20:10:00.848Z,13.37
2022-11-28T20:13:03.476Z,13.73
2022-11-28T20:16:08.733Z,13.53
2022-11-28T20:19:14.747Z,13.23
2022-11-28T20:22:17.338Z,13.13
2022-11-28T20:25:21.121Z,14.00
2022-11-28T20:28:23.877Z,12.77
2022-11-28T20:31:30.504Z,14.03
2022-11-28T20:34:34.474Z,13.37
2022-11-28T20:37:37.855Z,13.70
2022-11-28T20:40:40.467Z,14.03
2022-11-28T20:43:43.635Z,12.90
2022-11-28T20:46:46.499Z,13.20
2022-11-28T20:49:50.492Z,14.03
2022-11-28T20:52:53.116Z,13.33
2022-11-28T20:56:03.285Z,13.53
2022-11-28T20:59:07.160Z,14.23
2022-11-28T21:02:11.389Z,13.67
2022-11-28T21:05:15.388Z,12.67
2022-11-28T21:08:18.226Z,14.33
2022-11-28T21:11:50.058Z,13.10
2022-11-28T21:14:45.204Z,14.10
2022-11-28T21:17:47.823Z,14.53
2022-11-28T21:20:52.831Z,14.17
2022-11-28T21:23:57.636Z,13.50
2022-11-28T21:27:00.273Z,13.70
2022-11-28T21:30:03.731Z,13.87
2022-11-28T21:33:06.449Z,14.03
2022-11-28T21:36:11.485Z,14.37
2022-11-28T21:39:15.689Z,13.93
2022-11-28T21:42:20.778Z,14.17
2022-11-28T21:45:23.948Z,13.77
2022-11-28T21:48:26.580Z,14.70
2022-11-28T21:51:30.690Z,14.13
2022-11-28T21:54:33.304Z,14.70
2022-11-28T21:57:35.947Z,13.70
2022-11-28T22:00:53.111Z,14.43
2022-11-28T22:04:02.113Z,13.97
2022-11-28T22:07:07.905Z,13.63
2022-11-28T22:10:11.117Z,13.77
2022-11-28T22:13:13.775Z,13.97
2022-11-28T22:16:19.013Z,14.07
2022-11-28T22:19:21.645Z,14.00
2022-11-28T22:22:27.457Z,14.53
2022-11-28T22:25:30.482Z,14.27
2022-11-28T22:28:34.343Z,14.17
2022-11-28T22:31:37.509Z,15.33
2022-11-28T22:34:42.211Z,14.63
2022-11-28T22:37:46.872Z,16.07
2022-11-28T22:40:50.259Z,15.00
2022-11-28T22:43:55.786Z,15.27
2022-11-28T22:46:59.131Z,15.50
2022-11-28T22:50:02.100Z,15.43
2022-11-28T22:53:06.642Z,15.13
2022-11-28T22:56:12.562Z,15.77
2022-11-28T22:59:16.908Z,16.93
2022-11-28T23:02:19.648Z,16.00
2022-11-28T23:05:22.391Z,16.93
2022-11-28T23:08:26.389Z,16.50
2022-11-28T23:11:30.908Z,17.13
2022-11-28T23:14:33.537Z,17.63
2022-11-28T23:17:37.525Z,17.03
2022-11-28T23:20:40.329Z,17.33
2022-11-28T23:23:45.812Z,16.90
2022-11-28T23:26:49.222Z,17.90
2022-11-28T23:29:51.949Z,17.97
2022-11-28T23:32:54.579Z,17.33
2022-11-28T23:35:57.214Z,17.53
2022-11-28T23:39:03.041Z,18.20
2022-11-28T23:42:05.802Z,17.43
2022-11-28T23:45:10.102Z,19.27
2022-11-28T23:48:12.739Z,19.90
2022-11-28T23:51:16.894Z,20.17
2022-11-28T23:54:21.118Z,18.57
2022-11-28T23:57:23.751Z,19.03
